Time;durP1;ratioP1;P1;durP2;ratioP2;P2;SDS_P1;SDS_P2;PMS_P1;PMS_P2;Temp;Humidity;BMP_temperature;BMP_pressure;BME280_temperature;BME280_humidity;BME280_pressure;Samples;Min_cycle;Max_cycle;Signal;HPM_P1;HPM_P2
2021/03/16 00:00:38;;;;;;;26.63;3.97;;;;;;;2.94;96.06;101421.63;6173622;28;20055;-72
2021/03/16 00:03:39;;;;;;;23.83;3.20;;;;;;;2.73;96.50;101423.59;6173355;28;20567;-72
2021/03/16 00:06:40;;;;;;;29.40;3.38;;;;;;;2.68;98.05;101417.59;6173620;28;20130;-71
2021/03/16 00:09:41;;;;;;;24.35;2.88;;;;;;;2.91;96.45;101424.28;6173421;28;20051;-72
2021/03/16 00:12:43;;;;;;;22.25;3.58;;;;;;;2.80;97.02;101429.56;6173453;28;20055;-72
2021/03/16 00:15:44;;;;;;;31.55;2.95;;;;;;;2.70;96.45;101431.41;6173040;28;20515;-72
2021/03/16 00:18:45;;;;;;;35.88;3.10;;;;;;;2.74;96.73;101445.22;6173592;28;20055;-72
2021/03/16 00:21:46;;;;;;;34.75;4.50;;;;;;;2.76;95.61;101441.72;6173194;28;20438;-71
2021/03/16 00:24:47;;;;;;;30.02;3.25;;;;;;;2.83;95.69;101442.53;6173253;28;20126;-72
2021/03/16 00:27:48;;;;;;;33.22;3.58;;;;;;;2.74;95.72;101445.22;6173377;28;20609;-71
2021/03/16 00:30:49;;;;;;;30.15;4.32;;;;;;;2.85;95.59;101451.16;6173056;28;20054;-72
2021/03/16 00:33:50;;;;;;;30.25;3.65;;;;;;;2.71;96.29;101451.28;6173320;28;20094;-72
2021/03/16 00:36:51;;;;;;;21.33;2.92;;;;;;;2.68;96.17;101463.41;6176769;28;20054;-72
2021/03/16 00:39:52;;;;;;;30.45;3.13;;;;;;;2.80;95.20;101463.31;6177887;28;20467;-72
2021/03/16 00:42:54;;;;;;;32.83;3.47;;;;;;;2.80;95.64;101465.91;6177548;28;20109;-72
2021/03/16 00:45:55;;;;;;;30.60;2.90;;;;;;;2.51;96.53;101468.78;6177693;28;20496;-72
2021/03/16 00:48:56;;;;;;;32.97;3.40;;;;;;;2.71;96.12;101485.03;6177709;28;20174;-72
2021/03/16 00:51:58;;;;;;;26.27;3.03;;;;;;;2.69;95.51;101480.72;6177127;28;20053;-72
2021/03/16 00:54:59;;;;;;;14.00;2.72;;;;;;;2.46;96.21;101486.13;6177463;28;20538;-72
2021/03/16 00:58:01;;;;;;;33.83;4.88;;;;;;;2.56;96.09;101489.50;6177310;28;20051;-71
2021/03/16 01:01:04;;;;;;;30.92;4.22;;;;;;;2.48;96.70;101482.63;6177229;28;20062;-72
2021/03/16 01:04:05;;;;;;;27.58;3.47;;;;;;;2.53;95.94;101491.22;6177245;28;20047;-72
2021/03/16 01:07:06;;;;;;;21.58;2.70;;;;;;;2.62;94.96;101489.44;6177249;28;20054;-72
2021/03/16 01:10:10;;;;;;;28.75;3.40;;;;;;;2.48;95.54;101490.41;6177101;28;20193;-71
2021/03/16 01:13:12;;;;;;;28.70;3.30;;;;;;;2.53;95.53;101491.22;6176992;28;20125;-72
2021/03/16 01:16:13;;;;;;;30.45;2.95;;;;;;;2.41;94.83;101495.69;6176744;28;20050;-72
2021/03/16 01:19:14;;;;;;;17.38;3.10;;;;;;;2.33;96.02;101494.88;6177096;28;20145;-71
2021/03/16 01:22:14;;;;;;;22.80;3.60;;;;;;;2.61;93.85;101506.75;6176689;28;20057;-72
2021/03/16 01:25:15;;;;;;;19.42;2.47;;;;;;;2.33;95.85;101503.50;6176643;28;20464;-72
2021/03/16 01:28:17;;;;;;;24.33;2.88;;;;;;;2.39;95.16;101500.84;6176975;28;20419;-71
2021/03/16 01:31:18;;;;;;;20.80;4.22;;;;;;;2.31;95.12;101510.41;6176466;28;20050;-71
2021/03/16 01:34:19;;;;;;;15.75;2.70;;;;;;;2.35;94.60;101511.25;6176648;28;20053;-72
2021/03/16 01:37:20;;;;;;;23.08;3.60;;;;;;;2.32;95.00;101508.69;6176433;28;20478;-71
2021/03/16 01:40:27;;;;;;;25.85;2.45;;;;;;;2.31;94.85;101505.22;6176593;28;20166;-72
2021/03/16 01:43:32;;;;;;;22.70;2.85;;;;;;;2.18;95.84;101508.78;6176298;28;20113;-72
2021/03/16 01:46:34;;;;;;;20.42;2.47;;;;;;;2.23;96.42;101507.03;6176185;28;20054;-71
2021/03/16 01:49:35;;;;;;;29.20;2.50;;;;;;;2.25;95.31;101507.88;6176271;28;20522;-72
2021/03/16 01:52:37;;;;;;;21.83;4.35;;;;;;;2.15;95.29;101512.25;6176033;28;20054;-72
2021/03/16 01:55:38;;;;;;;32.45;4.88;;;;;;;2.47;95.32;101504.25;6176111;28;20050;-72
2021/03/16 01:58:43;;;;;;;25.83;3.25;;;;;;;2.23;95.31;101512.22;6175991;28;20051;-71
2021/03/16 02:01:44;;;;;;;23.73;3.00;;;;;;;2.36;96.26;101510.38;6175860;28;20123;-72
2021/03/16 02:04:45;;;;;;;32.00;4.78;;;;;;;2.37;95.66;101514.72;6175816;28;20053;-72
2021/03/16 02:07:53;;;;;;;32.60;3.70;;;;;;;2.32;95.54;101506.97;6175872;28;20054;-72
2021/03/16 02:11:01;;;;;;;21.98;2.67;;;;;;;2.33;95.79;101510.44;6175551;28;20420;-72
2021/03/16 02:14:10;;;;;;;35.13;2.95;;;;;;;2.18;96.29;101511.38;6175791;28;20058;-71
2021/03/16 02:17:15;;;;;;;18.20;2.65;;;;;;;2.11;97.16;101518.34;6175493;28;20051;-72
2021/03/16 02:20:33;;;;;;;32.65;3.28;;;;;;;2.07;97.74;101518.38;6175571;28;20050;-72
2021/03/16 02:24:00;;;;;;;37.13;4.03;;;;;;;2.22;96.82;101520.84;6175331;28;20062;-72
2021/03/16 02:27:09;;;;;;;23.92;3.42;;;;;;;2.11;97.62;101525.25;6175299;28;20511;-71
2021/03/16 02:30:12;;;;;;;26.75;3.30;;;;;;;2.15;98.21;101535.59;6175557;28;20496;-71
2021/03/16 02:33:18;;;;;;;34.10;3.83;;;;;;;2.34;97.88;101540.66;6175010;28;20055;-72
2021/03/16 02:36:20;;;;;;;47.90;11.85;;;;;;;2.29;98.12;101531.19;6174866;28;20475;-72
2021/03/16 02:39:22;;;;;;;33.05;4.80;;;;;;;2.07;98.69;101539.97;6175205;28;20050;-71
2021/03/16 02:42:25;;;;;;;42.10;5.78;;;;;;;2.17;97.86;101544.22;6174746;28;20061;-72
2021/03/16 02:45:28;;;;;;;28.98;3.80;;;;;;;2.21;99.34;101551.13;6174794;28;20425;-72
2021/03/16 02:48:30;;;;;;;29.45;3.90;;;;;;;2.14;98.93;101546.84;6174755;28;20098;-72
2021/03/16 02:51:31;;;;;;;20.52;2.95;;;;;;;2.17;98.85;101539.03;6174720;28;20094;-72
2021/03/16 02:54:33;;;;;;;30.52;4.78;;;;;;;2.03;100.00;101556.41;6174628;28;20046;-71
2021/03/16 02:57:35;;;;;;;31.42;3.42;;;;;;;2.08;98.82;101558.97;6174253;28;20050;-72
2021/03/16 03:00:38;;;;;;;30.58;3.10;;;;;;;2.13;99.99;101558.06;6174520;28;20058;-73
2021/03/16 03:03:40;;;;;;;19.83;3.10;;;;;;;2.05;99.59;101565.06;6174543;28;20058;-72
2021/03/16 03:06:43;;;;;;;33.22;3.80;;;;;;;2.14;99.41;101570.19;6174380;28;20051;-71
2021/03/16 03:09:44;;;;;;;31.50;4.35;;;;;;;2.09;100.00;101569.34;6174659;28;20047;-71
2021/03/16 03:12:45;;;;;;;42.20;5.80;;;;;;;2.20;100.00;101580.50;6174108;28;20094;-71
2021/03/16 03:15:47;;;;;;;37.05;4.35;;;;;;;2.16;99.78;101577.94;6173966;28;20043;-72
2021/03/16 03:18:48;;;;;;;34.08;4.03;;;;;;;2.21;100.00;101586.56;6174327;28;20562;-73
2021/03/16 03:21:54;;;;;;;26.00;5.40;;;;;;;2.53;100.00;101591.56;6173886;28;20054;-74
2021/03/16 03:24:58;;;;;;;35.17;5.20;;;;;;;2.45;99.19;101591.63;6173997;28;20051;-74
2021/03/16 03:28:02;;;;;;;24.67;4.22;;;;;;;2.34;99.89;101593.41;6173929;28;20047;-73
2021/03/16 03:31:07;;;;;;;25.88;4.43;;;;;;;2.55;99.97;101605.38;6186532;28;20050;-73
2021/03/16 03:34:08;;;;;;;24.75;5.05;;;;;;;2.50;99.26;101613.19;6197694;28;20051;-74
2021/03/16 03:37:10;;;;;;;29.63;4.32;;;;;;;2.55;99.16;101610.56;6175709;28;20058;-73
2021/03/16 03:40:13;;;;;;;26.88;4.63;;;;;;;2.39;99.78;101617.56;6173866;28;20059;-74
2021/03/16 03:43:18;;;;;;;36.97;4.45;;;;;;;2.52;99.84;101616.63;6194356;28;20062;-73
2021/03/16 03:46:20;;;;;;;23.33;4.55;;;;;;;2.67;98.84;101626.03;6174080;28;20054;-73
2021/03/16 03:49:23;;;;;;;34.08;5.75;;;;;;;2.42;99.29;101627.09;6173727;28;20058;-73
2021/03/16 03:52:25;;;;;;;25.23;5.00;;;;;;;2.68;98.78;101632.09;6173477;28;20142;-73
2021/03/16 03:55:27;;;;;;;32.97;4.97;;;;;;;2.54;98.14;101637.38;6173700;28;20062;-74
2021/03/16 03:58:28;;;;;;;43.60;5.82;;;;;;;2.53;98.62;101626.13;6173585;28;20683;-73
2021/03/16 04:01:31;;;;;;;31.15;5.40;;;;;;;2.59;98.11;101632.16;6173344;28;20051;-73
2021/03/16 04:04:32;;;;;;;27.23;4.28;;;;;;;2.63;98.93;101637.31;6173707;28;20050;-73
2021/03/16 04:07:34;;;;;;;40.30;7.53;;;;;;;2.60;99.68;101644.28;6173361;28;20150;-73
2021/03/16 04:10:38;;;;;;;37.28;6.78;;;;;;;2.52;98.72;101641.72;6177078;28;20488;-74
2021/03/16 04:13:40;;;;;;;40.88;4.32;;;;;;;2.70;98.28;101643.34;6178168;28;20086;-74
2021/03/16 04:16:42;;;;;;;31.45;4.45;;;;;;;2.82;98.51;101645.88;6178218;28;20058;-73
2021/03/16 04:19:44;;;;;;;23.30;4.85;;;;;;;2.61;98.96;101638.22;6178213;28;20054;-73
2021/03/16 04:22:45;;;;;;;27.02;4.13;;;;;;;2.51;99.58;101642.59;6177908;28;20443;-74
2021/03/16 04:25:46;;;;;;;28.83;4.70;;;;;;;2.69;99.38;101639.88;6178120;28;20051;-73
2021/03/16 04:28:47;;;;;;;17.33;3.15;;;;;;;2.89;99.08;101652.72;6178239;28;20416;-74
2021/03/16 04:31:49;;;;;;;30.70;3.63;;;;;;;2.99;97.79;101640.53;6177859;28;20046;-73
2021/03/16 04:34:50;;;;;;;30.42;4.85;;;;;;;2.76;98.50;101648.47;6177853;28;20062;-73
2021/03/16 04:37:51;;;;;;;25.25;4.18;;;;;;;2.86;99.11;101652.75;6177921;28;20515;-74
2021/03/16 04:40:52;;;;;;;28.83;3.53;;;;;;;3.14;97.14;101661.22;6177769;28;20058;-73
2021/03/16 04:43:53;;;;;;;21.02;4.00;;;;;;;3.18;95.87;101649.91;6177858;28;20054;-73
2021/03/16 04:46:55;;;;;;;23.60;3.42;;;;;;;3.00;97.99;101653.53;6177503;28;20141;-75
2021/03/16 04:49:56;;;;;;;26.15;3.83;;;;;;;3.07;97.57;101662.13;6177683;28;20050;-74
2021/03/16 04:52:57;;;;;;;33.88;4.07;;;;;;;3.15;96.93;101664.66;6177302;28;20058;-74
2021/03/16 04:55:58;;;;;;;37.13;4.70;;;;;;;3.12;97.38;101670.72;6177394;28;20042;-73
2021/03/16 04:58:59;;;;;;;34.38;4.30;;;;;;;3.29;97.22;101674.06;6177439;28;20181;-74
2021/03/16 05:02:01;;;;;;;26.25;3.25;;;;;;;3.24;96.16;101677.56;6177409;28;20057;-74
2021/03/16 05:05:02;;;;;;;29.30;4.00;;;;;;;3.34;94.87;101689.59;6177294;28;20504;-73
2021/03/16 05:08:03;;;;;;;27.48;3.95;;;;;;;3.28;95.61;101689.66;6177077;28;20054;-74
2021/03/16 05:11:04;;;;;;;32.15;3.28;;;;;;;3.56;94.72;101687.69;6177103;28;20055;-74
2021/03/16 05:14:05;;;;;;;36.13;3.53;;;;;;;3.56;94.51;101692.88;6176882;28;20570;-74
2021/03/16 05:17:07;;;;;;;31.30;3.15;;;;;;;3.46;94.41;101686.06;6176867;28;20050;-74
2021/03/16 05:20:09;;;;;;;28.27;4.05;;;;;;;3.63;93.63;101701.47;6176799;28;20069;-74
2021/03/16 05:23:10;;;;;;;29.45;4.47;;;;;;;3.51;93.86;101705.06;6176284;28;20056;-74
2021/03/16 05:26:11;;;;;;;27.83;4.35;;;;;;;3.41;93.98;101701.69;6176844;28;20094;-74
2021/03/16 05:29:12;;;;;;;33.92;3.83;;;;;;;3.34;95.56;101700.00;6176914;28;20109;-74
2021/03/16 05:32:13;;;;;;;23.83;5.13;;;;;;;3.66;92.88;101701.44;6176333;28;20133;-75
2021/03/16 05:35:15;;;;;;;17.80;3.15;;;;;;;3.74;92.22;101700.50;6176308;28;20051;-74
2021/03/16 05:38:16;;;;;;;18.02;3.05;;;;;;;3.75;91.95;101697.03;6176573;28;20047;-74
2021/03/16 05:41:17;;;;;;;28.13;5.68;;;;;;;3.70;92.46;101700.53;6176135;28;20058;-74
2021/03/16 05:44:18;;;;;;;33.13;4.63;;;;;;;3.71;92.53;101700.53;6176317;28;20519;-74
2021/03/16 05:47:22;;;;;;;24.42;3.10;;;;;;;3.60;92.92;101707.56;6176042;28;20098;-74
2021/03/16 05:50:23;;;;;;;19.27;3.45;;;;;;;3.63;93.15;101709.25;6176312;28;20047;-74
2021/03/16 05:53:24;;;;;;;41.97;6.25;;;;;;;3.57;93.76;101710.19;6175901;28;20467;-74
2021/03/16 05:56:25;;;;;;;20.95;3.20;;;;;;;3.70;93.71;101711.81;6175858;28;20494;-75
2021/03/16 05:59:27;;;;;;;26.38;3.58;;;;;;;3.52;94.20;101712.81;6176035;28;20047;-74
2021/03/16 06:02:29;;;;;;;33.22;5.30;;;;;;;3.50;94.78;101718.94;6175874;28;20059;-74
2021/03/16 06:05:29;;;;;;;45.35;5.05;;;;;;;3.35;96.60;101713.84;6190309;28;20046;-74
2021/03/16 06:08:31;;;;;;;18.38;3.58;;;;;;;3.31;97.03;101719.06;6199222;28;20522;-74
2021/03/16 06:11:33;;;;;;;39.25;3.88;;;;;;;3.60;95.71;101717.09;6199025;28;20160;-74
2021/03/16 06:14:35;;;;;;;18.50;2.88;;;;;;;3.53;95.70;101713.69;6199440;28;20050;-74
2021/03/16 06:17:43;;;;;;;29.15;3.60;;;;;;;3.51;94.85;101715.44;6199582;28;20057;-75
2021/03/16 06:20:44;;;;;;;29.42;3.97;;;;;;;3.77;94.29;101725.59;6199423;28;20046;-74
2021/03/16 06:23:53;;;;;;;25.80;2.90;;;;;;;3.53;93.93;101724.94;6199796;28;20069;-74
2021/03/16 06:26:54;;;;;;;32.38;3.70;;;;;;;3.69;93.58;101730.03;6198822;28;20050;-74
2021/03/16 06:29:55;;;;;;;38.05;3.08;;;;;;;3.81;92.25;101740.28;6199481;28;20189;-74
2021/03/16 06:32:56;;;;;;;19.90;3.10;;;;;;;3.67;92.92;101739.56;6198065;28;20125;-74
2021/03/16 06:35:59;;;;;;;30.45;3.55;;;;;;;3.54;93.18;101744.88;6199218;28;20049;-74
2021/03/16 06:39:02;;;;;;;20.65;2.85;;;;;;;3.64;91.60;101747.41;6198891;28;20076;-74
2021/03/16 06:42:04;;;;;;;30.77;4.63;;;;;;;3.66;91.58;101740.44;6198969;28;20051;-74
2021/03/16 06:45:07;;;;;;;19.83;2.75;;;;;;;3.87;90.65;101753.25;6198954;28;20042;-75
2021/03/16 06:48:16;;;;;;;19.60;2.53;;;;;;;3.84;89.78;101742.00;6199110;28;20058;-74
2021/03/16 06:51:17;;;;;;;22.02;2.92;;;;;;;3.95;88.78;101743.63;6198606;28;20073;-74
2021/03/16 06:54:20;;;;;;;26.25;2.83;;;;;;;4.06;87.82;101759.97;6198518;28;20051;-74
2021/03/16 06:57:24;;;;;;;24.60;3.47;;;;;;;4.13;87.66;101755.56;6198687;28;20514;-74
2021/03/16 07:00:25;;;;;;;11.80;2.22;;;;;;;4.10;88.31;101753.03;6198498;28;20503;-75
2021/03/16 07:03:27;;;;;;;25.50;2.75;;;;;;;4.00;88.25;101760.06;6198637;28;20105;-75
2021/03/16 07:06:29;;;;;;;17.50;1.95;;;;;;;4.00;88.35;101760.06;6198474;28;20046;-74
2021/03/16 07:09:31;;;;;;;11.02;3.40;;;;;;;3.97;89.02;101761.81;6198599;28;20058;-74
2021/03/16 07:12:34;;;;;;;19.17;2.58;;;;;;;4.21;87.04;101769.34;6198163;28;20058;-74
2021/03/16 07:15:38;;;;;;;22.38;2.45;;;;;;;4.18;87.00;101765.94;6197995;28;20046;-74
2021/03/16 07:18:41;;;;;;;14.48;1.98;;;;;;;4.28;87.29;101763.22;6198332;28;20149;-74
2021/03/16 07:21:49;;;;;;;16.13;2.15;;;;;;;4.31;86.72;101772.72;6198151;28;20058;-74
2021/03/16 07:24:51;;;;;;;20.35;2.20;;;;;;;4.17;87.90;101770.25;6197988;28;20538;-74
2021/03/16 07:27:52;;;;;;;20.35;2.03;;;;;;;4.47;86.02;101776.03;6198071;28;20062;-75
2021/03/16 07:30:53;;;;;;;14.30;1.90;;;;;;;4.40;86.85;101784.78;6197901;28;20054;-74
2021/03/16 07:33:56;;;;;;;16.27;2.55;;;;;;;4.49;86.48;101784.66;6197823;28;20109;-75
2021/03/16 07:36:57;;;;;;;15.98;2.30;;;;;;;4.43;86.33;101792.56;6197539;28;20542;-75
2021/03/16 07:40:02;;;;;;;14.23;2.60;;;;;;;4.43;87.13;101792.56;6197787;28;20458;-75
2021/03/16 07:43:09;;;;;;;18.67;2.50;;;;;;;4.41;86.61;101805.59;6197576;28;20423;-75
2021/03/16 07:46:11;;;;;;;17.42;2.08;;;;;;;4.35;88.48;101810.84;6197471;28;20046;-75
2021/03/16 07:49:15;;;;;;;17.38;2.13;;;;;;;4.56;87.69;101810.63;6197892;28;20058;-75
2021/03/16 07:52:18;;;;;;;12.65;2.28;;;;;;;4.37;87.88;101814.31;6197451;28;20053;-74
2021/03/16 07:55:26;;;;;;;15.25;2.83;;;;;;;4.27;88.86;101810.06;6197140;28;20043;-74
2021/03/16 07:58:27;;;;;;;13.18;2.25;;;;;;;4.30;89.35;101810.03;6189788;28;20050;-76
2021/03/16 08:01:28;;;;;;;17.10;2.50;;;;;;;4.36;89.02;101815.19;6180582;28;20098;-75
2021/03/16 08:04:35;;;;;;;29.30;3.33;;;;;;;4.51;88.56;101815.03;6176706;28;20054;-75
2021/03/16 08:07:35;;;;;;;19.08;1.83;;;;;;;4.44;89.74;101813.34;6196179;28;20046;-76
2021/03/16 08:10:36;;;;;;;18.88;1.77;;;;;;;4.44;90.18;101808.13;6180467;28;20085;-76
2021/03/16 08:13:37;;;;;;;17.40;1.70;;;;;;;4.43;90.55;101805.56;6197421;28;20078;-75
2021/03/16 08:16:41;;;;;;;14.18;2.10;;;;;;;4.44;88.94;101805.53;6180242;28;20401;-75
2021/03/16 08:19:43;;;;;;;14.30;2.35;;;;;;;4.69;89.90;101808.75;6185656;28;20499;-75
2021/03/16 08:22:44;;;;;;;10.07;1.50;;;;;;;4.67;89.33;101827.84;6197155;28;20550;-74
2021/03/16 08:25:47;;;;;;;15.63;1.75;;;;;;;4.45;90.70;101824.63;6197198;28;20042;-76
2021/03/16 08:28:49;;;;;;;11.07;1.67;;;;;;;4.27;91.68;101815.25;6179679;28;20054;-75
2021/03/16 08:31:52;;;;;;;18.73;1.92;;;;;;;4.43;91.90;101829.00;6172923;28;20055;-73
2021/03/16 08:34:57;;;;;;;16.73;1.95;;;;;;;4.46;90.82;101831.56;6173256;28;20051;-76
2021/03/16 08:37:58;;;;;;;17.15;1.70;;;;;;;4.56;90.79;101841.00;6195707;28;20078;-76
2021/03/16 08:41:05;;;;;;;12.57;1.80;;;;;;;4.51;90.41;101835.84;6197002;28;20050;-73
2021/03/16 08:44:05;;;;;;;10.55;1.40;;;;;;;4.45;90.35;101842.84;6197098;28;20054;-73
2021/03/16 08:47:11;;;;;;;8.98;1.92;;;;;;;4.52;91.66;101836.69;6196816;28;20104;-77
2021/03/16 08:50:13;;;;;;;8.65;1.65;;;;;;;4.57;91.31;101835.75;6197246;28;20066;-76
2021/03/16 08:53:15;;;;;;;10.32;1.40;;;;;;;4.68;91.51;101838.28;6195899;28;20076;-76
2021/03/16 08:56:20;;;;;;;14.35;1.98;;;;;;;4.86;89.42;101845.00;6197614;28;20053;-75
2021/03/16 08:59:22;;;;;;;9.70;1.58;;;;;;;4.94;88.88;101840.53;6201602;28;20046;-74
2021/03/16 09:02:27;;;;;;;8.07;1.30;;;;;;;4.96;88.30;101840.53;6200518;28;20457;-75
2021/03/16 09:05:28;;;;;;;11.05;2.35;;;;;;;5.11;87.45;101834.25;6201282;28;20050;-77
2021/03/16 09:08:29;;;;;;;9.88;1.10;;;;;;;5.19;85.77;101838.50;6201264;28;20454;-76
2021/03/16 09:11:33;;;;;;;9.27;0.93;;;;;;;5.15;86.59;101843.78;6200899;28;20189;-75
2021/03/16 09:14:33;;;;;;;8.98;1.13;;;;;;;5.00;89.06;101843.09;6201156;28;20050;-75
2021/03/16 09:17:35;;;;;;;10.63;1.48;;;;;;;5.06;87.25;101845.59;6201073;28;20054;-77
2021/03/16 09:20:41;;;;;;;9.38;1.33;;;;;;;5.01;87.47;101852.63;6201219;28;20054;-75
2021/03/16 09:23:42;;;;;;;8.00;1.20;;;;;;;4.87;89.14;101851.94;6200975;28;20051;-75
2021/03/16 09:26:43;;;;;;;16.15;1.95;;;;;;;5.05;86.39;101851.69;6200931;28;20058;-76
2021/03/16 09:29:44;;;;;;;8.52;1.40;;;;;;;5.26;86.57;101855.75;6200095;28;20046;-77
2021/03/16 09:32:47;;;;;;;6.72;1.35;;;;;;;5.01;87.54;101855.22;6197701;28;20046;-76
2021/03/16 09:35:55;;;;;;;7.00;1.08;;;;;;;5.21;86.06;101860.16;6200445;28;20503;-77
2021/03/16 09:38:57;;;;;;;11.75;1.60;;;;;;;5.20;85.40;101850.63;6200778;28;20431;-77
2021/03/16 09:41:59;;;;;;;4.35;0.65;;;;;;;5.24;86.14;101867.09;6200143;28;20442;-77
2021/03/16 09:45:03;;;;;;;7.53;1.27;;;;;;;5.20;86.24;101870.63;6187152;28;20133;-76
2021/03/16 09:48:04;;;;;;;6.32;1.10;;;;;;;5.06;86.99;101862.97;6176077;28;20047;-76
2021/03/16 09:51:12;;;;;;;7.97;1.13;;;;;;;5.12;88.00;101873.31;6175711;28;20496;-78
2021/03/16 09:54:13;;;;;;;7.80;1.45;;;;;;;4.94;87.78;101877.00;6176407;28;20058;-79
2021/03/16 09:57:16;;;;;;;6.07;1.20;;;;;;;5.14;87.77;101881.13;6186739;28;20681;-77
2021/03/16 10:00:18;;;;;;;11.00;1.23;;;;;;;5.12;87.04;101875.91;6200437;28;20097;-77
2021/03/16 10:03:20;;;;;;;14.32;1.50;;;;;;;5.20;85.47;101878.44;6199711;28;20058;-78
2021/03/16 10:06:36;;;;;;;13.43;1.70;;;;;;;5.32;83.72;101870.47;6200202;28;20046;-78
2021/03/16 10:09:40;;;;;;;12.35;1.58;;;;;;;5.31;85.58;101866.13;6200108;28;20058;-75
2021/03/16 10:12:50;;;;;;;12.13;2.17;;;;;;;5.49;83.38;101868.47;6199744;28;20058;-75
2021/03/16 10:15:51;;;;;;;12.75;1.88;;;;;;;5.68;81.27;101879.50;6199376;28;20062;-76
2021/03/16 10:18:52;;;;;;;13.57;2.15;;;;;;;5.48;84.73;101885.00;6199571;28;20061;-76
2021/03/16 10:21:55;;;;;;;11.52;1.98;;;;;;;5.00;91.38;101902.16;6198126;28;20470;-78
2021/03/16 10:24:57;;;;;;;9.52;1.27;;;;;;;4.72;94.45;101891.16;6199770;28;20047;-78
2021/03/16 10:28:00;;;;;;;7.22;1.48;;;;;;;4.55;97.72;101889.59;6199435;28;20435;-78
2021/03/16 10:31:13;;;;;;;17.75;3.03;;;;;;;4.69;98.13;101892.06;6199426;28;20519;-78
2021/03/16 10:34:14;;;;;;;8.38;1.63;;;;;;;5.11;97.51;101887.22;6199230;28;20408;-78
2021/03/16 10:37:20;;;;;;;17.75;3.75;;;;;;;5.21;95.22;101885.38;6199388;28;20054;-78
2021/03/16 10:40:21;;;;;;;9.38;1.80;;;;;;;5.31;91.92;101880.03;6199250;28;20058;-77
2021/03/16 10:43:22;;;;;;;16.38;2.20;;;;;;;5.44;89.05;101885.91;6198973;28;20109;-78
2021/03/16 10:46:23;;;;;;;23.00;3.15;;;;;;;5.47;87.36;101885.03;6199132;28;20499;-78
2021/03/16 10:49:24;;;;;;;14.50;2.10;;;;;;;5.50;87.38;101882.38;6198991;28;20057;-77
2021/03/16 10:52:26;;;;;;;16.52;3.10;;;;;;;5.52;87.40;101884.06;6198756;28;20050;-78
2021/03/16 10:55:26;;;;;;;11.32;2.60;;;;;;;5.77;82.28;101881.13;6198571;28;20121;-76
2021/03/16 10:58:27;;;;;;;10.45;1.80;;;;;;;5.75;80.05;101882.88;6199048;28;20058;-78
2021/03/16 11:01:28;;;;;;;13.57;2.20;;;;;;;5.82;78.67;101880.16;6198534;28;20046;-78
2021/03/16 11:04:29;;;;;;;13.10;2.45;;;;;;;5.85;76.10;101890.53;6198947;28;20128;-77
2021/03/16 11:07:31;;;;;;;16.02;3.08;;;;;;;5.81;75.78;101904.53;6198471;28;20507;-77
2021/03/16 11:10:32;;;;;;;14.73;2.33;;;;;;;5.71;76.84;101902.06;6198772;28;20047;-77
2021/03/16 11:13:33;;;;;;;19.58;2.40;;;;;;;5.67;78.03;101890.81;6198354;28;20050;-77
2021/03/16 11:16:34;;;;;;;13.93;2.60;;;;;;;5.65;79.57;101886.50;6197964;28;20054;-76
2021/03/16 11:19:35;;;;;;;16.48;2.28;;;;;;;5.85;75.41;101890.53;6198110;28;20061;-76
2021/03/16 11:22:37;;;;;;;15.68;2.20;;;;;;;6.00;72.55;101872.97;6198069;28;20497;-78
2021/03/16 11:25:37;;;;;;;23.80;2.60;;;;;;;6.44;73.87;101872.19;6198417;28;20510;-78
2021/03/16 11:28:38;;;;;;;21.60;2.63;;;;;;;6.69;72.59;101874.34;6198012;28;20077;-78
2021/03/16 11:31:39;;;;;;;19.30;2.70;;;;;;;6.66;70.79;101864.81;6198146;28;20050;-78
2021/03/16 11:34:41;;;;;;;16.75;2.72;;;;;;;6.50;72.06;101864.25;6197903;28;20483;-77
2021/03/16 11:37:42;;;;;;;19.02;2.72;;;;;;;7.01;68.06;101877.19;6198052;28;20053;-78
2021/03/16 11:40:43;;;;;;;12.35;2.28;;;;;;;7.41;67.46;101870.28;6197873;28;20518;-77
2021/03/16 11:43:44;;;;;;;12.93;2.10;;;;;;;7.14;66.32;101877.81;6197673;28;20046;-77
2021/03/16 11:46:45;;;;;;;20.58;2.22;;;;;;;7.02;67.67;101871.06;6197957;28;20125;-77
2021/03/16 11:49:46;;;;;;;18.63;2.38;;;;;;;7.01;66.58;101869.34;6197782;28;20562;-77
2021/03/16 11:52:48;;;;;;;12.07;1.90;;;;;;;7.23;64.40;101858.47;6197640;28;20514;-76
2021/03/16 11:55:49;;;;;;;17.83;2.88;;;;;;;7.06;66.31;101859.66;6197497;28;20043;-77
2021/03/16 11:58:50;;;;;;;17.63;2.17;;;;;;;7.22;66.39;101865.44;6197878;28;20104;-76
2021/03/16 12:01:51;;;;;;;17.92;2.05;;;;;;;7.06;65.87;101872.72;6197277;28;20133;-78
2021/03/16 12:04:51;;;;;;;17.90;2.20;;;;;;;6.93;67.57;101867.78;6197554;28;20419;-78
2021/03/16 12:07:53;;;;;;;18.38;2.83;;;;;;;6.89;68.24;101873.97;6197586;28;20137;-77
2021/03/16 12:10:54;;;;;;;16.73;2.10;;;;;;;6.78;70.07;101861.13;6197113;28;20050;-78
2021/03/16 12:13:55;;;;;;;20.77;2.22;;;;;;;6.81;71.02;101867.16;6197641;28;20046;-77
2021/03/16 12:16:56;;;;;;;22.15;3.00;;;;;;;7.32;65.44;101861.72;6197052;28;20059;-78
2021/03/16 12:19:57;;;;;;;13.95;1.90;;;;;;;7.74;60.53;101853.78;6197755;28;20074;-78
2021/03/16 12:22:59;;;;;;;17.35;2.35;;;;;;;8.11;58.66;101847.66;6197470;28;20111;-77
2021/03/16 12:26:00;;;;;;;16.13;2.70;;;;;;;8.03;59.77;101850.44;6197531;28;20046;-77
2021/03/16 12:29:00;;;;;;;23.10;3.63;;;;;;;7.75;60.14;101855.50;6197387;28;20054;-78
2021/03/16 12:32:01;;;;;;;19.83;2.35;;;;;;;7.37;61.04;101861.63;6199466;28;20133;-77
2021/03/16 12:35:03;;;;;;;19.63;2.47;;;;;;;7.32;64.32;101851.25;6202346;28;20050;-78
2021/03/16 12:38:04;;;;;;;13.73;2.28;;;;;;;7.97;61.69;101855.00;6201904;28;20541;-78
2021/03/16 12:41:05;;;;;;;13.50;2.20;;;;;;;7.63;63.48;101846.19;6201776;28;20054;-78
2021/03/16 12:44:06;;;;;;;16.20;2.17;;;;;;;7.46;61.67;101850.97;6202126;28;20061;-78
2021/03/16 12:47:07;;;;;;;16.73;1.88;;;;;;;7.16;63.49;101857.72;6202059;28;20503;-78
2021/03/16 12:50:09;;;;;;;17.83;2.47;;;;;;;6.99;63.59;101862.41;6201710;28;20491;-77
2021/03/16 12:53:11;;;;;;;10.98;1.77;;;;;;;6.86;64.52;101859.22;6201652;28;20101;-78
2021/03/16 12:56:12;;;;;;;22.90;2.00;;;;;;;6.99;65.25;101859.81;6201586;28;20487;-78
2021/03/16 12:59:13;;;;;;;23.20;3.47;;;;;;;7.97;63.99;101861.09;6201482;28;20471;-78
2021/03/16 13:02:14;;;;;;;6.47;1.60;;;;;;;8.36;60.17;101846.16;6201393;28;20101;-78
2021/03/16 13:05:16;;;;;;;11.35;2.13;;;;;;;8.02;57.06;101850.50;6201369;28;20046;-79
2021/03/16 13:08:17;;;;;;;11.10;2.38;;;;;;;7.85;59.85;101840.44;6201493;28;20050;-78
2021/03/16 13:11:18;;;;;;;19.42;2.95;;;;;;;7.82;59.52;101835.28;6201002;28;20053;-78
2021/03/16 13:14:19;;;;;;;16.60;2.15;;;;;;;7.85;57.46;101836.06;6201239;28;20054;-78
2021/03/16 13:17:20;;;;;;;10.88;1.60;;;;;;;8.20;55.75;101836.09;6201005;28;20130;-79
2021/03/16 13:20:21;;;;;;;13.77;1.60;;;;;;;8.46;55.75;101836.28;6201367;28;20055;-79
2021/03/16 13:23:22;;;;;;;10.18;1.77;;;;;;;8.91;52.51;101840.28;6200948;28;20507;-79
2021/03/16 13:26:23;;;;;;;19.58;2.85;;;;;;;8.71;53.68;101838.22;6200859;28;20400;-78
2021/03/16 13:29:24;;;;;;;9.77;1.73;;;;;;;8.29;54.12;101838.47;6200935;28;20624;-78
2021/03/16 13:32:25;;;;;;;12.07;2.22;;;;;;;8.37;57.05;101836.53;6200797;28;20061;-77
2021/03/16 13:35:26;;;;;;;15.18;1.98;;;;;;;8.71;55.66;101841.69;6200707;28;20053;-78
2021/03/16 13:38:28;;;;;;;12.90;1.90;;;;;;;8.67;56.50;101842.69;6200713;28;20423;-78
2021/03/16 13:41:29;;;;;;;12.45;1.67;;;;;;;9.45;54.78;101850.91;6200119;28;20046;-77
2021/03/16 13:44:30;;;;;;;15.73;2.90;;;;;;;9.69;55.15;101845.78;6200585;28;20092;-78
2021/03/16 13:47:31;;;;;;;11.63;1.60;;;;;;;9.66;53.49;101842.34;6200541;28;20141;-78
2021/03/16 13:50:31;;;;;;;17.20;2.50;;;;;;;9.48;53.74;101845.53;6200374;28;20050;-78
2021/03/16 13:53:33;;;;;;;19.17;3.20;;;;;;;8.64;57.22;101846.25;6200343;28;20046;-78
2021/03/16 13:56:34;;;;;;;11.27;1.50;;;;;;;8.75;56.56;101845.94;6200130;28;20517;-79
2021/03/16 13:59:35;;;;;;;7.28;1.40;;;;;;;8.89;54.39;101846.41;6200399;28;20496;-77
2021/03/16 14:02:36;;;;;;;12.75;1.73;;;;;;;9.05;55.65;101841.59;6199909;28;20054;-77
2021/03/16 14:05:37;;;;;;;12.63;1.80;;;;;;;9.09;52.69;101845.84;6200066;28;20085;-78
2021/03/16 14:08:39;;;;;;;10.80;1.17;;;;;;;8.82;49.78;101842.28;6200006;28;20042;-77